Portales, NM (88130)

11:23 PM MDT on August 30, 2015 (GMT -0600)
S of ENMU | | Change Station
CLOSE
Current Station
Personal Weather Station
Location: Portales, NM
Elevation: 4078 ft
Nearby Weather Stations

Elev 4078 ft 34.17 °N, 103.35 °W | Updated 15 seconds ago

Clear
Clear
74.5 °F
Feels Like 77 °F
N
4.0
Wind Variable Wind from NNE
Gusts 5.4 mph

Today
High -- | Low -- °F
--% Chance of Precip.
Yesterday
High -- | Low -- °F
Precip. -- in
6:25 AM 7:22 PM
Full, 97% visible
Pressure 29.92 in
Visibility 10.0 miles
Clouds Clear
Heat Index 77 °F
Dew Point 49 °F
Humidity 40%
Rainfall 0.00 in
Snow Depth Not available.
UV 0 out of 12
Pollen 8.30 out of 12
Air Quality Not available.
Flu Activity Not available.
METAR KCVS 310458Z AUTO 19007KT 10SM CLR 20/10 A3009 RMK AO2 SLP132 T02010095 $
Pressure 29.92 in
Visibility 10.0 miles
Clouds Clear
Heat Index 77 °F
Dew Point 49 °F
Humidity 40%
Rainfall 0.00 in
Snow Depth Not available.
UV 0 out of 12
Pollen 8.30 out of 12
Air Quality Not available.
Flu Activity Not available.
METAR KCVS 310458Z AUTO 19007KT 10SM CLR 20/10 A3009 RMK AO2 SLP132 T02010095 $

10-Day Weather Forecast

×

Almanac

Astronomy

Aug. 30, 2015 Rise Set
Actual Time
Civil Twilight
Nautical Twilight
Astronomical Twilight
Moon
Length of Visible Light
Length of Day
Tomorrow will be .
, % of the Moon is Illuminated

Today's Extremes

State Highs State Lows

Community

WunderPhotos

Upload Photos

1,851,212 photos uploaded!

WunderBlogs® & News

Nearby

Air Quality

  Air Quality AQ Index Pollutant
Not available.

Snow Depth

Station Depth Elevation

Earthquake Activity

City Distance Mag. Time & Date
Minimum magnitude displayed is 2.5.

Coastal Water Temperatures

Place Temperature

Stations

Nearby Weather Stations

Station Location Temp. Windchill Dew Point Humidity Wind Precip. Elev Updated Type